Time,TemperatureF,DewpointF,PressureIn,WindDirection,WindDirectionDegrees,WindSpeedMPH,WindSpeedGustMPH,Humidity,HourlyPrecipIn,Conditions,Clouds,dailyrainin,SoftwareType,DateUTC
2013-06-10 00:13:00,73.4,62.6,30.05,West,270,2.2,-999.0,69,-99.99,,,0.00,Acu-Link.com,2013-06-10 04:13:00,
2013-06-10 00:28:00,73.2,63.2,30.05,WNW,292,1.7,-999.0,71,-99.99,,,0.00,Acu-Link.com,2013-06-10 04:28:00,
2013-06-10 00:43:00,73.8,63.8,30.05,WNW,292,3.2,-999.0,71,-99.99,,,0.00,Acu-Link.com,2013-06-10 04:43:00,
2013-06-10 00:59:00,73.8,64.2,30.06,West,270,3.7,-999.0,72,-99.99,,,0.00,Acu-Link.com,2013-06-10 04:59:00,
2013-06-10 01:14:00,72.7,64.3,30.05,SSW,202,1.7,-999.0,75,-99.99,,,0.00,Acu-Link.com,2013-06-10 05:14:00,
2013-06-10 01:30:00,72.5,64.1,30.05,West,270,2.7,-999.0,75,-99.99,,,0.00,Acu-Link.com,2013-06-10 05:30:00,
2013-06-10 01:46:00,72.1,64.1,30.05,WSW,247,2.7,-999.0,76,-99.99,,,0.00,Acu-Link.com,2013-06-10 05:46:00,
2013-06-10 02:02:00,72.0,64.4,30.05,SSW,202,1.7,-999.0,77,-99.99,,,0.00,Acu-Link.com,2013-06-10 06:02:00,
2013-06-10 02:17:00,71.8,64.2,30.05,West,270,3.2,-999.0,77,-99.99,,,0.00,Acu-Link.com,2013-06-10 06:17:00,
2013-06-10 02:33:00,71.8,64.6,30.05,West,270,2.7,-999.0,78,-99.99,,,0.00,Acu-Link.com,2013-06-10 06:33:00,
2013-06-10 02:48:00,71.6,64.4,30.05,NW,315,1.7,-999.0,78,-99.99,,,0.00,Acu-Link.com,2013-06-10 06:48:00,
2013-06-10 03:04:00,71.4,64.2,30.04,SW,225,1.1,-999.0,78,-99.99,,,0.00,Acu-Link.com,2013-06-10 07:04:00,
2013-06-10 03:19:00,71.2,64.3,30.05,WNW,292,4.2,-999.0,79,-99.99,,,0.00,Acu-Link.com,2013-06-10 07:19:00,
2013-06-10 03:34:00,71.2,64.3,30.05,NW,315,3.2,-999.0,79,-99.99,,,0.00,Acu-Link.com,2013-06-10 07:34:00,
2013-06-10 03:50:00,71.2,64.0,30.04,West,270,1.7,-999.0,78,-99.99,,,0.00,Acu-Link.com,2013-06-10 07:50:00,
2013-06-10 04:05:00,71.6,64.4,30.04,WNW,292,2.7,-999.0,78,-99.99,,,0.00,Acu-Link.com,2013-06-10 08:05:00,
2013-06-10 04:21:00,71.2,64.0,30.04,West,270,1.1,-999.0,78,-99.99,,,0.00,Acu-Link.com,2013-06-10 08:21:00,
2013-06-10 04:51:00,71.1,64.2,30.04,NNW,337,2.7,-999.0,79,-99.99,,,0.00,Acu-Link.com,2013-06-10 08:51:00,
2013-06-10 05:07:00,71.1,64.2,30.04,WNW,292,2.7,-999.0,79,-99.99,,,0.00,Acu-Link.com,2013-06-10 09:07:00,
2013-06-10 05:22:00,71.1,64.2,30.04,North,0,1.7,-999.0,79,-99.99,,,0.00,Acu-Link.com,2013-06-10 09:22:00,
2013-06-10 05:38:00,71.1,64.6,30.04,North,0,2.7,-999.0,80,-99.99,,,0.00,Acu-Link.com,2013-06-10 09:38:00,
2013-06-10 05:53:00,70.7,64.2,30.04,NNW,337,4.2,-999.0,80,-99.99,,,0.00,Acu-Link.com,2013-06-10 09:53:00,
2013-06-10 06:09:00,70.5,64.0,30.04,NNE,22,2.2,-999.0,80,-99.99,,,0.00,Acu-Link.com,2013-06-10 10:09:00,
2013-06-10 06:24:00,70.5,64.0,30.04,NNE,22,4.7,-999.0,80,-99.99,,,0.00,Acu-Link.com,2013-06-10 10:24:00,
2013-06-10 06:40:00,70.0,63.9,30.04,NW,315,4.7,-999.0,81,-99.99,,,0.00,Acu-Link.com,2013-06-10 10:40:00,
2013-06-10 06:56:00,69.6,63.9,30.04,NNW,337,3.7,-999.0,82,-99.99,,,0.00,Acu-Link.com,2013-06-10 10:56:00,
2013-06-10 07:13:00,69.8,64.0,30.04,East,90,2.7,-999.0,82,-99.99,,,0.00,Acu-Link.com,2013-06-10 11:13:00,
2013-06-10 07:28:00,70.0,64.2,30.04,NE,45,2.7,-999.0,82,-99.99,,,0.00,Acu-Link.com,2013-06-10 11:28:00,
2013-06-10 07:44:00,70.5,64.4,30.03,East,90,3.7,-999.0,81,-99.99,,,0.00,Acu-Link.com,2013-06-10 11:44:00,
2013-06-10 07:59:00,70.3,63.8,30.03,NNE,22,5.8,-999.0,80,-99.99,,,0.00,Acu-Link.com,2013-06-10 11:59:00,
2013-06-10 08:15:00,70.3,64.2,30.04,NNE,22,5.3,-999.0,81,-99.99,,,0.00,Acu-Link.com,2013-06-10 12:15:00,
2013-06-10 08:30:00,70.0,63.9,30.04,NE,45,5.3,-999.0,81,-99.99,,,0.00,Acu-Link.com,2013-06-10 12:30:00,
2013-06-10 08:46:00,70.7,64.6,30.04,NNW,337,3.2,-999.0,81,-99.99,,,0.00,Acu-Link.com,2013-06-10 12:46:00,
2013-06-10 09:01:00,70.9,64.8,30.04,NNE,22,3.2,-999.0,81,-99.99,,,0.00,Acu-Link.com,2013-06-10 13:01:00,
2013-06-10 09:31:00,71.8,65.3,30.02,WSW,247,0.0,-999.0,80,-99.99,,,0.00,Acu-Link.com,2013-06-10 13:31:00,
2013-06-10 10:02:00,71.8,64.9,30.01,ESE,112,2.7,-999.0,79,-99.99,,,0.00,Acu-Link.com,2013-06-10 14:02:00,
2013-06-10 10:17:00,72.5,65.6,30.01,NW,315,3.2,-999.0,79,-99.99,,,0.00,Acu-Link.com,2013-06-10 14:17:00,
2013-06-10 10:32:00,73.6,65.9,30.01,NE,45,3.2,-999.0,77,-99.99,,,0.00,Acu-Link.com,2013-06-10 14:32:00,
2013-06-10 10:47:00,72.3,65.8,30.01,South,180,2.2,-999.0,80,-99.99,,,0.00,Acu-Link.com,2013-06-10 14:47:00,
2013-06-10 11:02:00,71.8,66.7,30.03,SW,225,3.2,-999.0,84,-99.99,,,0.05,Acu-Link.com,2013-06-10 15:02:00,
2013-06-10 11:17:00,69.8,65.7,30.02,South,180,3.7,-999.0,87,-99.99,,,0.13,Acu-Link.com,2013-06-10 15:17:00,
2013-06-10 11:32:00,69.3,65.9,30.02,ESE,112,1.7,-999.0,89,-99.99,,,0.19,Acu-Link.com,2013-06-10 15:32:00,
2013-06-10 11:47:00,69.3,65.9,30.02,South,180,3.7,-999.0,89,-99.99,,,0.30,Acu-Link.com,2013-06-10 15:47:00,
2013-06-10 12:03:00,68.9,65.5,30.02,ESE,112,5.8,-999.0,89,-99.99,,,0.42,Acu-Link.com,2013-06-10 16:03:00,
2013-06-10 12:18:00,68.7,65.6,30.01,NNE,22,0.0,-999.0,90,-99.99,,,0.53,Acu-Link.com,2013-06-10 16:18:00,
2013-06-10 12:33:00,69.4,66.0,30.00,SE,135,3.2,-999.0,89,-99.99,,,0.55,Acu-Link.com,2013-06-10 16:33:00,
2013-06-10 12:49:00,69.1,65.4,30.00,East,90,4.2,-999.0,88,-99.99,,,0.55,Acu-Link.com,2013-06-10 16:49:00,
2013-06-10 13:04:00,69.1,64.1,29.98,NE,45,4.7,-999.0,84,-99.99,,,0.56,Acu-Link.com,2013-06-10 17:04:00,
2013-06-10 13:19:00,69.8,64.4,29.97,NNE,22,7.3,-999.0,83,-99.99,,,0.56,Acu-Link.com,2013-06-10 17:19:00,
2013-06-10 13:34:00,70.5,64.7,29.96,East,90,3.2,-999.0,82,-99.99,,,0.56,Acu-Link.com,2013-06-10 17:34:00,
2013-06-10 13:50:00,68.9,65.5,29.95,SSE,157,2.2,-999.0,89,-99.99,,,0.76,Acu-Link.com,2013-06-10 17:50:00,
2013-06-10 14:05:00,68.9,64.9,29.94,WNW,292,2.7,-999.0,87,-99.99,,,0.80,Acu-Link.com,2013-06-10 18:05:00,
2013-06-10 14:20:00,69.8,65.4,29.94,West,270,0.0,-999.0,86,-99.99,,,0.84,Acu-Link.com,2013-06-10 18:20:00,
2013-06-10 14:36:00,69.6,64.9,29.95,NNW,337,3.7,-999.0,85,-99.99,,,0.85,Acu-Link.com,2013-06-10 18:36:00,
2013-06-10 14:51:00,68.9,64.2,29.94,SSW,202,6.3,-999.0,85,-99.99,,,0.86,Acu-Link.com,2013-06-10 18:51:00,
2013-06-10 15:21:00,68.5,63.8,29.92,ENE,67,2.7,-999.0,85,-99.99,,,0.86,Acu-Link.com,2013-06-10 19:21:00,
2013-06-10 15:37:00,68.4,64.0,29.91,NNE,22,1.7,-999.0,86,-99.99,,,0.87,Acu-Link.com,2013-06-10 19:37:00,
2013-06-10 15:52:00,68.5,64.8,29.90,NNE,22,1.1,-999.0,88,-99.99,,,0.88,Acu-Link.com,2013-06-10 19:52:00,
2013-06-10 16:07:00,67.3,64.6,29.90,West,270,0.0,-999.0,91,-99.99,,,0.90,Acu-Link.com,2013-06-10 20:07:00,
2013-06-10 16:22:00,67.1,64.7,29.89,ENE,67,2.2,-999.0,92,-99.99,,,0.96,Acu-Link.com,2013-06-10 20:22:00,
2013-06-10 16:38:00,66.6,64.2,29.89,ENE,67,4.7,-999.0,92,-99.99,,,1.04,Acu-Link.com,2013-06-10 20:38:00,
2013-06-10 16:53:00,66.7,64.6,29.89,NE,45,2.2,-999.0,93,-99.99,,,1.08,Acu-Link.com,2013-06-10 20:53:00,
2013-06-10 17:09:00,66.6,64.2,29.88,NNE,22,3.7,-999.0,92,-99.99,,,1.10,Acu-Link.com,2013-06-10 21:09:00,
2013-06-10 17:24:00,66.6,64.2,29.87,NNE,22,4.2,-999.0,92,-99.99,,,1.11,Acu-Link.com,2013-06-10 21:24:00,
2013-06-10 17:39:00,66.4,64.3,29.86,NNE,22,2.7,-999.0,93,-99.99,,,1.13,Acu-Link.com,2013-06-10 21:39:00,
2013-06-10 17:55:00,66.4,64.3,29.85,WSW,247,2.7,-999.0,93,-99.99,,,1.14,Acu-Link.com,2013-06-10 21:55:00,
2013-06-10 18:10:00,66.7,64.9,29.86,North,0,1.1,-999.0,94,-99.99,,,1.18,Acu-Link.com,2013-06-10 22:10:00,
2013-06-10 18:25:00,66.6,64.8,29.86,ENE,67,3.2,-999.0,94,-99.99,,,1.18,Acu-Link.com,2013-06-10 22:25:00,
2013-06-10 18:56:00,66.2,64.7,29.84,NE,45,1.1,-999.0,95,-99.99,,,1.23,Acu-Link.com,2013-06-10 22:56:00,
2013-06-10 19:12:00,66.6,65.1,29.84,ENE,67,3.7,-999.0,95,-99.99,,,1.26,Acu-Link.com,2013-06-10 23:12:00,
2013-06-10 19:27:00,66.4,64.9,29.83,NNW,337,3.2,-999.0,95,-99.99,,,1.28,Acu-Link.com,2013-06-10 23:27:00,
2013-06-10 19:42:00,66.6,65.1,29.83,NE,45,1.7,-999.0,95,-99.99,,,1.31,Acu-Link.com,2013-06-10 23:42:00,
2013-06-10 19:58:00,66.9,65.7,29.82,SSW,202,1.1,-999.0,96,-99.99,,,1.36,Acu-Link.com,2013-06-10 23:58:00,
2013-06-10 20:13:00,66.7,65.5,29.81,NNE,22,4.2,-999.0,96,-99.99,,,1.39,Acu-Link.com,2013-06-11 00:13:00,
2013-06-10 20:28:00,66.2,65.0,29.80,ENE,67,7.8,-999.0,96,-99.99,,,1.44,Acu-Link.com,2013-06-11 00:28:00,
2013-06-10 20:43:00,66.0,64.8,29.80,SE,135,1.7,-999.0,96,-99.99,,,1.48,Acu-Link.com,2013-06-11 00:43:00,
2013-06-10 20:58:00,65.7,64.5,29.79,East,90,3.7,-999.0,96,-99.99,,,1.54,Acu-Link.com,2013-06-11 00:58:00,
2013-06-10 21:13:00,65.7,64.5,29.78,ESE,112,7.3,-999.0,96,-99.99,,,1.60,Acu-Link.com,2013-06-11 01:13:00,
2013-06-10 21:28:00,65.1,63.6,29.78,NW,315,3.7,-999.0,95,-99.99,,,1.60,Acu-Link.com,2013-06-11 01:28:00,
2013-06-10 21:44:00,64.9,63.7,29.78,NE,45,2.7,-999.0,96,-99.99,,,1.61,Acu-Link.com,2013-06-11 01:44:00,
2013-06-10 21:59:00,64.8,63.3,29.81,ESE,112,2.7,-999.0,95,-99.99,,,1.61,Acu-Link.com,2013-06-11 01:59:00,
2013-06-10 22:14:00,64.8,63.6,29.81,WNW,292,4.7,-999.0,96,-99.99,,,1.61,Acu-Link.com,2013-06-11 02:14:00,
2013-06-10 22:30:00,64.2,63.0,29.82,ENE,67,2.2,-999.0,96,-99.99,,,1.61,Acu-Link.com,2013-06-11 02:30:00,
2013-06-10 22:45:00,64.2,63.0,29.80,NE,45,3.2,-999.0,96,-99.99,,,1.61,Acu-Link.com,2013-06-11 02:45:00,
2013-06-10 23:00:00,64.6,63.7,29.80,WSW,247,2.2,-999.0,97,-99.99,,,1.61,Acu-Link.com,2013-06-11 03:00:00,
2013-06-10 23:15:00,64.9,64.0,29.78,NE,45,3.7,-999.0,97,-99.99,,,1.61,Acu-Link.com,2013-06-11 03:15:00,
2013-06-10 23:31:00,64.9,64.0,29.77,East,90,2.7,-999.0,97,-99.99,,,1.70,Acu-Link.com,2013-06-11 03:31:00,
2013-06-10 23:46:00,65.1,64.2,29.75,NNE,22,2.2,-999.0,97,-99.99,,,1.76,Acu-Link.com,2013-06-11 03:46:00,